Time;durP1;ratioP1;P1;durP2;ratioP2;P2;SDS_P1;SDS_P2;PMS_P1;PMS_P2;Temp;Humidity;BMP_temperature;BMP_pressure;BME280_temperature;BME280_humidity;BME280_pressure;Samples;Min_cycle;Max_cycle;Signal;HPM_P1;HPM_P2
2023/05/11 00:00:02;;;;;;;;;;;;;;;12.82;92.67;100443.69;5075042;28;20051;-66
2023/05/11 00:03:09;;;;;;;6.13;0.88;;;;;;;12.77;93.09;100438.75;5074878;28;19926;-66
2023/05/11 00:06:12;;;;;;;6.75;1.30;;;;;;;12.80;93.33;100442.03;5075431;28;20455;-66
2023/05/11 00:09:16;;;;;;;8.57;1.15;;;;;;;12.83;92.36;100440.13;5075142;28;20113;-66
2023/05/11 00:12:19;;;;;;;;;;;;;;;12.84;92.58;100437.41;5075482;28;20512;-66
2023/05/11 00:15:22;;;;;;;5.05;0.70;;;;;;;12.84;92.47;100426.91;5075030;28;19923;-66
2023/05/11 00:18:25;;;;;;;7.03;0.80;;;;;;;12.79;92.30;100431.59;5074995;28;20099;-66
2023/05/11 00:21:29;;;;;;;4.65;0.90;;;;;;;12.78;92.70;100433.38;5075177;28;20127;-66
2023/05/11 00:24:32;;;;;;;3.38;1.02;;;;;;;12.65;92.57;100432.47;5074800;28;20062;-66
2023/05/11 00:27:35;;;;;;;6.70;0.90;;;;;;;12.47;93.14;100436.22;5075073;28;20040;-66
2023/05/11 00:30:40;;;;;;;7.18;0.90;;;;;;;12.41;93.71;100441.84;5074756;28;20043;-66
2023/05/11 00:33:43;;;;;;;5.15;1.05;;;;;;;12.49;93.30;100435.22;5073739;28;20074;-66
2023/05/11 00:36:48;;;;;;;10.88;0.60;;;;;;;12.32;92.81;100438.03;5074598;28;20043;-66
2023/05/11 00:39:51;;;;;;;7.57;1.00;;;;;;;12.22;93.71;100437.75;5074892;28;20102;-66
2023/05/11 00:42:54;;;;;;;4.20;0.70;;;;;;;12.13;94.14;100438.31;5074808;28;20120;-66
2023/05/11 00:45:58;;;;;;;15.43;0.85;;;;;;;12.28;94.39;100441.75;5074564;28;20512;-66
2023/05/11 00:49:02;;;;;;;8.68;1.58;;;;;;;12.34;93.72;100436.13;5073551;28;20091;-66
2023/05/11 00:52:05;;;;;;;3.75;0.80;;;;;;;12.41;93.09;100421.75;5073484;28;20063;-65
2023/05/11 00:55:09;;;;;;;11.73;1.10;;;;;;;12.42;92.96;100433.06;5074239;28;20060;-66
2023/05/11 00:58:13;;;;;;;7.47;0.82;;;;;;;12.29;93.40;100430.34;5074653;28;20389;-67
2023/05/11 01:01:17;;;;;;;4.88;0.90;;;;;;;12.22;93.58;100432.50;5074252;28;20063;-66
2023/05/11 01:04:21;;;;;;;2.45;0.52;;;;;;;12.16;94.28;100437.28;5074523;28;20101;-66
2023/05/11 01:07:44;;;;;;;2.90;0.40;;;;;;;12.28;93.74;100437.38;5074132;28;20137;-66
2023/05/11 01:10:59;;;;;;;10.82;1.00;;;;;;;12.08;93.72;100442.97;5073221;28;20043;-66
2023/05/11 01:14:14;;;;;;;4.78;0.60;;;;;;;11.98;94.19;100436.59;5074181;28;20509;-66
2023/05/11 01:17:24;;;;;;;4.93;0.88;;;;;;;12.01;94.37;100433.78;5073535;28;20234;-66
2023/05/11 01:20:29;;;;;;;5.00;0.73;;;;;;;12.06;93.25;100434.34;5072668;28;20128;-65
2023/05/11 01:23:59;;;;;;;6.60;1.27;;;;;;;11.94;93.63;100440.34;5072966;28;20059;-68
2023/05/11 01:27:12;;;;;;;4.30;0.88;;;;;;;11.77;93.72;100436.03;5072992;28;20089;-65
2023/05/11 01:30:41;;;;;;;4.60;0.90;;;;;;;11.76;94.38;100443.06;5072871;28;20046;-66
2023/05/11 01:33:57;;;;;;;4.63;0.80;;;;;;;11.78;94.23;100440.34;5072711;28;20460;-66
2023/05/11 01:37:13;;;;;;;7.47;1.10;;;;;;;11.88;93.80;100444.16;5072791;28;20047;-66
2023/05/11 01:40:20;;;;;;;7.68;1.20;;;;;;;11.92;94.36;100434.34;5073206;28;20052;-66
2023/05/11 01:43:26;;;;;;;7.63;1.58;;;;;;;11.80;93.76;100435.84;5072542;28;20417;-66
2023/05/11 01:46:32;;;;;;;6.93;1.60;;;;;;;11.75;93.55;100438.75;5073367;28;20120;-66
2023/05/11 01:49:37;;;;;;;7.32;1.90;;;;;;;11.74;93.03;100447.56;5073010;28;20078;-66
2023/05/11 01:52:44;;;;;;;5.35;1.35;;;;;;;11.66;93.79;100443.69;5072390;28;20094;-66
2023/05/11 01:55:50;;;;;;;4.88;1.35;;;;;;;11.78;93.91;100446.44;5072833;28;20047;-66
2023/05/11 01:58:55;;;;;;;3.20;0.90;;;;;;;11.80;93.00;100447.19;5072848;28;20127;-66
2023/05/11 02:02:00;;;;;;;5.50;1.30;;;;;;;11.62;93.69;100453.50;5072794;28;20136;-66
2023/05/11 02:05:05;;;;;;;13.07;1.75;;;;;;;11.59;94.68;100451.06;5072935;28;20409;-66
2023/05/11 02:08:10;;;;;;;4.80;1.25;;;;;;;11.61;94.78;100457.03;5073138;28;20460;-66
2023/05/11 02:11:15;;;;;;;9.20;1.92;;;;;;;11.58;95.54;100458.06;5071830;28;20124;-66
2023/05/11 02:14:21;;;;;;;7.65;1.58;;;;;;;11.61;95.68;100457.03;5071931;28;20078;-66
2023/05/11 02:17:26;;;;;;;7.50;2.13;;;;;;;11.53;96.29;100454.88;5071871;28;20043;-67
2023/05/11 02:20:30;;;;;;;15.77;3.15;;;;;;;11.61;96.28;100457.91;5072000;28;20035;-66
2023/05/11 02:23:33;;;;;;;5.30;1.75;;;;;;;11.63;96.66;100461.25;5071903;28;20079;-66
2023/05/11 02:26:37;;;;;;;3.00;1.60;;;;;;;11.77;95.84;100462.22;5072647;28;20089;-66
2023/05/11 02:29:40;;;;;;;7.68;2.15;;;;;;;11.68;96.16;100454.91;5071739;28;20462;-66
2023/05/11 02:32:49;;;;;;;;;;;;;;;11.71;96.24;100460.84;5072012;28;20048;-66
2023/05/11 02:35:55;;;;;;;7.53;1.98;;;;;;;11.61;96.67;100457.91;5071701;28;19974;-66
2023/05/11 02:39:05;;;;;;;10.45;2.67;;;;;;;11.57;96.78;100448.50;5071858;28;20047;-67
2023/05/11 02:42:23;;;;;;;5.47;1.63;;;;;;;11.52;95.96;100457.56;5071549;28;20525;-69
2023/05/11 02:45:36;;;;;;;7.63;2.17;;;;;;;11.59;94.52;100458.91;5060593;28;20378;-66
2023/05/11 02:48:45;;;;;;;4.32;1.20;;;;;;;11.51;94.00;100454.09;5071259;28;20585;-65
2023/05/11 02:51:53;;;;;;;4.20;1.30;;;;;;;11.51;94.15;100458.50;5071654;28;20139;-66
2023/05/11 02:55:00;;;;;;;5.05;1.25;;;;;;;11.66;93.05;100456.78;5072307;28;20178;-65
2023/05/11 02:58:03;;;;;;;5.53;1.70;;;;;;;11.71;92.29;100452.97;5071303;28;20090;-66
2023/05/11 03:01:07;;;;;;;8.30;1.67;;;;;;;11.61;93.02;100446.56;5071289;28;20128;-66
2023/05/11 03:08:28;;;;;;;7.63;1.98;;;;;;;11.35;94.71;100453.28;5031557;28;19994;-66
2023/05/11 03:11:32;;;;;;;;;;;;;;;11.33;95.55;100453.41;5030692;28;20107;-66
2023/05/11 03:14:36;;;;;;;6.68;2.05;;;;;;;11.26;96.17;100454.66;5032098;28;20435;-67
2023/05/11 03:17:41;;;;;;;4.32;1.58;;;;;;;11.26;94.58;100459.88;5032191;28;20048;-67
2023/05/11 03:20:50;;;;;;;3.20;1.20;;;;;;;11.26;93.51;100454.66;5031238;28;20048;-66
2023/05/11 03:23:53;;;;;;;3.45;1.08;;;;;;;11.22;93.63;100455.75;5031380;28;20094;-66
2023/05/11 03:26:58;;;;;;;6.05;1.60;;;;;;;11.27;93.71;100456.34;5054079;28;20052;-66
2023/05/11 03:30:07;;;;;;;4.68;1.90;;;;;;;11.30;93.87;100452.72;5031140;28;20044;-68
2023/05/11 03:33:16;;;;;;;5.68;2.17;;;;;;;11.23;94.43;100460.09;5052509;28;20102;-65
2023/05/11 03:36:26;;;;;;;6.20;1.63;;;;;;;11.25;93.61;100449.50;5032006;28;20048;-67
2023/05/11 03:39:56;;;;;;;8.95;1.73;;;;;;;11.14;93.81;100452.75;5031057;28;20065;-65
2023/05/11 03:43:03;;;;;;;5.45;1.95;;;;;;;11.24;93.41;100448.69;5030962;28;20044;-65
2023/05/11 03:46:06;;;;;;;8.98;2.00;;;;;;;11.09;94.12;100450.38;5030876;28;20052;-65
2023/05/11 03:49:10;;;;;;;8.15;2.10;;;;;;;11.16;93.34;100449.09;5030768;28;20243;-66
2023/05/11 03:52:14;;;;;;;5.50;1.75;;;;;;;11.13;93.05;100451.03;5030840;28;20099;-65
2023/05/11 03:55:17;;;;;;;;;;;;;;;11.18;92.79;100449.00;5031036;28;20091;-66
2023/05/11 03:58:20;;;;;;;10.90;3.20;;;;;;;11.25;92.19;100449.50;5032560;28;19935;-66
2023/05/11 04:01:25;;;;;;;15.80;6.30;;;;;;;11.31;91.93;100447.38;5034585;28;20147;-66
2023/05/11 04:04:29;;;;;;;14.98;9.25;;;;;;;11.14;92.67;100447.50;5039799;28;20048;-66
2023/05/11 04:07:36;;;;;;;12.00;4.47;;;;;;;11.06;92.87;100442.69;5070178;28;20064;-65
2023/05/11 04:10:39;;;;;;;8.85;1.92;;;;;;;11.02;93.22;100451.63;5075084;28;20133;-65
2023/05/11 04:13:42;;;;;;;;;;;;;;;11.03;92.87;100455.09;5075475;28;20098;-66
2023/05/11 04:16:45;;;;;;;7.67;1.47;;;;;;;10.93;92.44;100460.81;5074191;28;20284;-67
2023/05/11 04:19:48;;;;;;;;;;;;;;;10.88;92.62;100457.63;5075398;28;20045;-66
2023/05/11 04:22:50;;;;;;;4.78;1.25;;;;;;;10.81;92.87;100466.72;5074106;28;20337;-66
2023/05/11 04:25:55;;;;;;;7.25;1.30;;;;;;;10.81;92.66;100466.72;5074731;28;20049;-67
2023/05/11 04:28:58;;;;;;;4.00;1.20;;;;;;;10.74;92.65;100464.53;5074762;28;20067;-66
2023/05/11 04:32:01;;;;;;;6.10;1.52;;;;;;;10.69;93.03;100470.03;5074753;28;20145;-67
2023/05/11 04:35:06;;;;;;;4.43;1.27;;;;;;;10.83;92.64;100462.25;5073897;28;20580;-68
2023/05/11 04:38:12;;;;;;;7.25;1.90;;;;;;;10.79;92.62;100468.59;5073771;28;20433;-66
2023/05/11 04:41:16;;;;;;;7.03;1.40;;;;;;;10.84;92.21;100473.56;5074243;28;20477;-66
2023/05/11 04:44:19;;;;;;;5.25;1.50;;;;;;;10.73;92.52;100463.69;5074788;28;20678;-66
2023/05/11 04:47:22;;;;;;;7.60;1.48;;;;;;;10.70;92.94;100472.53;5074752;28;20141;-68
2023/05/11 04:50:26;;;;;;;3.25;1.40;;;;;;;10.88;92.26;100475.94;5072982;28;20523;-68
2023/05/11 04:53:30;;;;;;;4.07;1.67;;;;;;;10.81;92.52;100471.94;5073456;28;20043;-67
2023/05/11 04:56:39;;;;;;;6.22;1.50;;;;;;;10.81;92.14;100471.94;5073420;28;20127;-67
2023/05/11 04:59:42;;;;;;;7.97;1.20;;;;;;;10.78;92.92;100472.13;5073543;28;20570;-67
2023/05/11 05:02:45;;;;;;;;;;;;;;;10.77;92.97;100480.91;5074681;28;20048;-68
2023/05/11 05:05:48;;;;;;;2.53;1.30;;;;;;;10.76;92.98;100478.38;5072636;28;19923;-67
2023/05/11 05:08:52;;;;;;;5.30;1.40;;;;;;;10.84;92.17;100478.78;5073827;28;20074;-67
2023/05/11 05:11:57;;;;;;;3.30;1.52;;;;;;;10.79;92.75;100481.66;5073267;28;20229;-68
2023/05/11 05:15:01;;;;;;;3.60;1.70;;;;;;;10.71;93.84;100486.47;5074157;28;20044;-73
2023/05/11 05:18:05;;;;;;;3.38;1.85;;;;;;;10.69;94.39;100490.94;5061952;28;20136;-68
2023/05/11 05:21:08;;;;;;;3.95;1.98;;;;;;;10.70;94.54;100497.84;5073375;28;20180;-68
2023/05/11 05:24:11;;;;;;;8.40;1.85;;;;;;;10.76;94.31;100496.69;5073116;28;20040;-68
2023/05/11 05:27:15;;;;;;;2.28;1.33;;;;;;;10.87;94.44;100496.94;5072994;28;20050;-68
2023/05/11 05:30:18;;;;;;;4.32;1.42;;;;;;;10.88;95.38;100501.25;5073031;28;20055;-68
2023/05/11 05:33:21;;;;;;;;;;;;;;;10.95;95.49;100507.84;5073348;28;20044;-68
2023/05/11 05:36:25;;;;;;;7.13;2.28;;;;;;;11.01;95.13;100506.66;5073089;28;19920;-68
2023/05/11 05:39:29;;;;;;;5.72;1.50;;;;;;;11.07;94.62;100511.56;5073759;28;20062;-69
2023/05/11 05:42:32;;;;;;;4.97;1.83;;;;;;;11.05;95.31;100511.66;5072868;28;20520;-68
2023/05/11 05:45:36;;;;;;;3.88;1.40;;;;;;;11.11;95.51;100511.31;5072686;28;20048;-68
2023/05/11 05:48:40;;;;;;;5.95;1.52;;;;;;;11.25;95.33;100509.72;5072654;28;20105;-68
2023/05/11 05:51:44;;;;;;;5.03;1.58;;;;;;;11.33;95.66;100521.47;5072946;28;20074;-68
2023/05/11 05:54:47;;;;;;;3.80;1.45;;;;;;;11.43;95.90;100520.94;5073407;28;20105;-68
2023/05/11 05:57:51;;;;;;;6.82;1.40;;;;;;;11.41;95.60;100515.78;5073616;28;20056;-68
2023/05/11 06:00:54;;;;;;;4.70;1.50;;;;;;;11.57;95.26;100513.16;5072584;28;20115;-69
2023/05/11 06:03:58;;;;;;;5.13;1.63;;;;;;;11.57;95.28;100513.97;5072381;28;20181;-69
2023/05/11 06:07:01;;;;;;;4.47;1.42;;;;;;;11.64;94.91;100517.09;5072282;28;20047;-69
2023/05/11 06:10:05;;;;;;;4.90;1.80;;;;;;;11.75;94.24;100522.59;5073163;28;20047;-68
2023/05/11 06:13:09;;;;;;;7.20;1.48;;;;;;;11.80;94.41;100523.16;5072965;28;20051;-68
2023/05/11 06:16:15;;;;;;;5.53;1.55;;;;;;;11.93;94.19;100519.84;5072236;28;20623;-68
2023/05/11 06:19:18;;;;;;;4.25;1.70;;;;;;;11.90;94.06;100522.66;5072108;28;20174;-68
2023/05/11 06:22:22;;;;;;;;;;;;;;;11.89;94.54;100524.44;5072495;28;20067;-70
2023/05/11 06:25:26;;;;;;;7.25;2.47;;;;;;;11.94;93.92;100513.69;5073169;28;19919;-68
2023/05/11 06:28:29;;;;;;;7.15;1.80;;;;;;;12.07;93.78;100519.91;5048972;28;20044;-68
2023/05/11 06:31:36;;;;;;;4.13;1.50;;;;;;;12.14;93.92;100523.84;5071914;28;20528;-68
2023/05/11 06:34:41;;;;;;;3.25;1.88;;;;;;;12.13;93.33;100519.56;5071887;28;20044;-67
2023/05/11 06:37:45;;;;;;;4.65;1.42;;;;;;;12.26;92.98;100522.28;5060554;28;20039;-67
2023/05/11 06:40:52;;;;;;;;;;;;;;;12.43;91.23;100521.28;5072888;28;20101;-67
2023/05/11 06:43:55;;;;;;;3.38;1.65;;;;;;;12.51;90.38;100521.69;5072539;28;19966;-67
2023/05/11 06:47:13;;;;;;;3.15;1.63;;;;;;;12.49;89.05;100513.88;5071659;28;20055;-67
2023/05/11 06:50:16;;;;;;;3.55;1.90;;;;;;;12.38;88.83;100521.56;5072509;28;20078;-67
2023/05/11 06:53:20;;;;;;;3.35;2.35;;;;;;;12.59;85.66;100516.78;5072159;28;20052;-68
2023/05/11 06:56:24;;;;;;;3.20;2.13;;;;;;;12.79;85.38;100505.94;5072695;28;20051;-66
2023/05/11 06:59:32;;;;;;;5.40;2.50;;;;;;;12.70;83.97;100503.88;5072596;28;20548;-67
2023/05/11 07:02:36;;;;;;;4.53;2.47;;;;;;;12.44;83.74;100512.47;5072565;28;20409;-67
2023/05/11 07:05:42;;;;;;;3.25;2.45;;;;;;;12.69;82.57;100519.69;5072342;28;20457;-67
2023/05/11 07:08:46;;;;;;;3.45;2.70;;;;;;;12.90;81.89;100507.06;5072305;28;20052;-67
2023/05/11 07:11:50;;;;;;;6.55;2.80;;;;;;;13.06;83.29;100507.78;5072296;28;20052;-67
2023/05/11 07:14:54;;;;;;;5.32;2.75;;;;;;;12.79;82.51;100510.31;5072430;28;20090;-67
2023/05/11 07:18:00;;;;;;;3.58;2.70;;;;;;;12.92;82.64;100513.03;5072184;28;20094;-67
2023/05/11 07:21:03;;;;;;;4.80;3.58;;;;;;;12.84;81.90;100507.44;5070951;28;20135;-67
2023/05/11 07:24:08;;;;;;;3.55;2.60;;;;;;;12.74;81.44;100508.00;5070698;28;20162;-67
2023/05/11 07:27:11;;;;;;;4.00;3.10;;;;;;;12.91;82.25;100516.59;5071410;28;20127;-67
2023/05/11 07:30:15;;;;;;;4.50;3.03;;;;;;;12.77;81.16;100513.06;5071261;28;20051;-67
2023/05/11 07:33:18;;;;;;;5.72;3.45;;;;;;;12.70;81.68;100517.00;5072706;28;20047;-67
2023/05/11 07:36:22;;;;;;;3.70;3.10;;;;;;;12.67;81.97;100514.56;5076078;28;20478;-67
2023/05/11 07:39:24;;;;;;;;;;;;;;;12.95;81.38;100510.22;5075563;28;20508;-67
2023/05/11 07:42:27;;;;;;;4.18;2.75;;;;;;;12.96;80.87;100511.91;5075886;28;19919;-67
2023/05/11 07:45:31;;;;;;;4.22;3.30;;;;;;;13.02;80.89;100512.38;5075906;28;20161;-67
2023/05/11 07:48:34;;;;;;;3.47;2.67;;;;;;;13.06;81.98;100505.16;5076165;28;20512;-68
2023/05/11 07:51:37;;;;;;;3.80;2.90;;;;;;;13.21;81.26;100505.97;5075812;28;20113;-67
2023/05/11 07:54:40;;;;;;;4.38;3.45;;;;;;;13.22;80.23;100507.66;5075556;28;20048;-67
2023/05/11 07:57:44;;;;;;;4.32;3.28;;;;;;;13.20;79.02;100499.84;5075595;28;20056;-67
2023/05/11 08:00:47;;;;;;;4.60;3.22;;;;;;;13.09;79.56;100512.84;5075703;28;20059;-67
2023/05/11 08:03:50;;;;;;;5.72;3.83;;;;;;;13.01;78.84;100504.59;5075433;28;20039;-67
2023/05/11 08:06:54;;;;;;;4.32;3.83;;;;;;;12.99;79.76;100509.94;5075090;28;20105;-69
2023/05/11 08:09:57;;;;;;;;;;;;;;;13.00;79.52;100514.25;5075689;28;20115;-67
2023/05/11 08:13:04;;;;;;;4.22;3.53;;;;;;;12.89;79.07;100513.22;5074309;28;19923;-67
2023/05/11 08:16:07;;;;;;;4.80;3.80;;;;;;;13.03;81.29;100505.34;5075368;28;20066;-67
2023/05/11 08:19:11;;;;;;;5.28;3.45;;;;;;;13.01;79.75;100515.09;5075304;28;20059;-67
2023/05/11 08:22:14;;;;;;;4.43;3.80;;;;;;;13.28;79.04;100509.09;5075182;28;20043;-67
2023/05/11 08:25:18;;;;;;;3.78;3.20;;;;;;;13.10;77.31;100509.25;5075118;28;20051;-68
2023/05/11 08:28:21;;;;;;;6.70;3.47;;;;;;;13.08;78.13;100516.41;5075498;28;20177;-67
2023/05/11 08:31:24;;;;;;;5.03;3.30;;;;;;;13.25;78.12;100513.56;5075326;28;20101;-67
2023/05/11 08:34:28;;;;;;;4.10;3.60;;;;;;;13.50;77.15;100517.25;5074853;28;20055;-67
2023/05/11 08:37:34;;;;;;;5.47;3.67;;;;;;;13.63;76.78;100510.28;5074985;28;20043;-67
2023/05/11 08:40:39;;;;;;;3.47;3.05;;;;;;;13.48;76.88;100509.47;5074834;28;20043;-67
2023/05/11 08:43:44;;;;;;;5.50;3.90;;;;;;;13.46;77.37;100510.50;5074478;28;20066;-67
2023/05/11 08:46:52;;;;;;;5.32;3.58;;;;;;;13.75;77.32;100510.41;5075030;28;20046;-67
2023/05/11 08:49:57;;;;;;;5.25;3.80;;;;;;;13.80;76.13;100517.03;5074945;28;20040;-67
2023/05/11 08:53:00;;;;;;;6.45;4.15;;;;;;;13.65;76.39;100518.03;5074606;28;20079;-67
2023/05/11 08:56:07;;;;;;;4.28;3.72;;;;;;;13.71;76.72;100517.63;5074889;28;20523;-68
2023/05/11 08:59:12;;;;;;;4.38;3.70;;;;;;;13.83;74.72;100516.84;5074623;28;20116;-68
2023/05/11 09:02:18;;;;;;;5.18;3.30;;;;;;;13.44;75.44;100518.50;5074692;28;20090;-68
2023/05/11 09:05:25;;;;;;;5.38;3.80;;;;;;;13.75;76.23;100518.28;5074194;28;20039;-69
2023/05/11 09:08:30;;;;;;;6.60;4.28;;;;;;;13.94;75.79;100524.00;5074433;28;20051;-68
2023/05/11 09:11:33;;;;;;;6.10;4.03;;;;;;;13.85;75.75;100522.00;5074523;28;20120;-67
2023/05/11 09:14:37;;;;;;;5.25;3.60;;;;;;;13.83;76.17;100522.09;5073634;28;20125;-67
2023/05/11 09:17:40;;;;;;;5.68;3.42;;;;;;;13.75;74.77;100518.28;5074409;28;20043;-67
2023/05/11 09:20:43;;;;;;;4.63;4.15;;;;;;;13.88;74.34;100516.53;5074243;28;20121;-67
2023/05/11 09:23:55;;;;;;;7.03;4.35;;;;;;;13.90;75.27;100515.47;5073648;28;20048;-67
2023/05/11 09:27:08;;;;;;;5.47;4.38;;;;;;;14.11;76.45;100517.66;5074004;28;20409;-67
2023/05/11 09:30:14;;;;;;;6.00;5.07;;;;;;;14.11;76.08;100517.66;5071756;28;20121;-67
2023/05/11 09:33:25;;;;;;;6.18;5.07;;;;;;;14.18;75.25;100518.91;5072268;28;20596;-67
2023/05/11 09:36:28;;;;;;;4.93;4.43;;;;;;;14.30;74.52;100517.25;5073823;28;20048;-67
2023/05/11 09:39:33;;;;;;;5.70;4.60;;;;;;;14.14;74.07;100513.03;5074042;28;20455;-67
2023/05/11 09:42:37;;;;;;;5.57;4.55;;;;;;;14.30;74.81;100511.97;5073411;28;20113;-67
2023/05/11 09:45:41;;;;;;;5.57;4.65;;;;;;;14.17;72.76;100512.81;5073611;28;20142;-67
2023/05/11 09:48:57;;;;;;;5.28;4.38;;;;;;;14.28;72.68;100513.88;5073859;28;20063;-67
2023/05/11 09:52:00;;;;;;;4.55;3.85;;;;;;;14.37;72.77;100516.72;5073755;28;20106;-67
2023/05/11 09:55:11;;;;;;;7.10;4.55;;;;;;;14.46;74.69;100510.00;5073290;28;20090;-67
2023/05/11 09:58:15;;;;;;;6.68;4.95;;;;;;;14.54;74.40;100510.31;5073610;28;20093;-67
2023/05/11 10:01:28;;;;;;;5.93;4.30;;;;;;;14.63;71.84;100504.41;5073399;28;20047;-67
2023/05/11 10:04:35;;;;;;;6.03;4.50;;;;;;;14.78;71.11;100497.25;5073195;28;20127;-68
2023/05/11 10:07:50;;;;;;;6.20;3.70;;;;;;;15.09;70.20;100505.59;5073136;28;20589;-68
2023/05/11 10:10:57;;;;;;;4.75;3.80;;;;;;;15.22;69.83;100502.91;5073431;28;20158;-68
2023/05/11 10:14:04;;;;;;;6.05;3.97;;;;;;;15.45;69.54;100499.47;5073089;28;20039;-68
2023/05/11 10:17:10;;;;;;;6.38;3.83;;;;;;;15.33;68.38;100489.84;5073125;28;20047;-68
2023/05/11 10:20:13;;;;;;;4.30;3.35;;;;;;;15.30;66.28;100482.16;5073047;28;20445;-68
2023/05/11 10:23:17;;;;;;;5.22;3.38;;;;;;;15.24;67.90;100474.69;5073040;28;20406;-68
2023/05/11 10:26:20;;;;;;;4.63;3.60;;;;;;;15.51;68.74;100480.59;5073008;28;20405;-68
2023/05/11 10:29:23;;;;;;;3.83;3.17;;;;;;;15.59;68.48;100483.47;5073004;28;20097;-68
2023/05/11 10:32:28;;;;;;;5.25;3.58;;;;;;;15.55;67.87;100481.19;5072896;28;20101;-68
2023/05/11 10:35:31;;;;;;;5.20;3.28;;;;;;;15.20;67.07;100473.25;5072922;28;20129;-68
2023/05/11 10:38:38;;;;;;;8.75;3.97;;;;;;;15.00;67.69;100470.25;5072716;28;20086;-68
2023/05/11 10:42:06;;;;;;;4.43;2.92;;;;;;;14.70;67.64;100472.41;5072749;28;20141;-67
2023/05/11 10:45:28;;;;;;;5.63;3.03;;;;;;;15.05;68.15;100473.38;5071498;28;20089;-68
2023/05/11 10:49:17;;;;;;;5.72;3.20;;;;;;;14.74;65.59;100471.25;5090050;27;20412;-69
2023/05/11 10:52:41;;;;;;;3.95;2.92;;;;;;;14.85;66.57;100472.19;5090219;28;20477;-68
2023/05/11 10:56:00;;;;;;;4.20;2.90;;;;;;;14.96;66.95;100457.41;5090142;28;20129;-68
2023/05/11 10:59:34;;;;;;;4.18;2.67;;;;;;;15.15;67.03;100472.72;5090188;28;20047;-68
2023/05/11 11:02:37;;;;;;;4.68;2.95;;;;;;;15.34;66.39;100465.16;5090032;28;20181;-68
2023/05/11 11:05:42;;;;;;;3.38;2.63;;;;;;;15.38;67.64;100465.78;5089884;28;20098;-69
2023/05/11 11:08:59;;;;;;;6.68;2.65;;;;;;;15.44;68.10;100468.78;5088080;28;20179;-67
2023/05/11 11:12:08;;;;;;;6.32;2.67;;;;;;;15.32;66.96;100464.44;5089910;28;20129;-68
2023/05/11 11:15:12;;;;;;;9.02;3.25;;;;;;;15.39;67.20;100462.19;5088845;28;20121;-68
2023/05/11 11:18:20;;;;;;;6.35;4.60;;;;;;;15.24;68.75;100465.00;5089713;28;20123;-68
2023/05/11 11:21:40;;;;;;;3.90;3.00;;;;;;;15.20;69.21;100460.06;5089754;28;20093;-68
2023/05/11 11:24:45;;;;;;;6.93;3.33;;;;;;;15.16;68.95;100463.88;5089886;28;20127;-68
2023/05/11 11:27:55;;;;;;;3.92;2.40;;;;;;;15.26;67.93;100457.00;5089593;28;20143;-67
2023/05/11 11:31:22;;;;;;;4.22;2.60;;;;;;;15.39;67.83;100460.41;5089604;28;20522;-67
2023/05/11 11:34:26;;;;;;;5.53;2.95;;;;;;;15.29;67.86;100460.25;5089734;28;20569;-69
2023/05/11 11:37:59;;;;;;;4.57;3.03;;;;;;;15.28;67.81;100457.69;5089497;28;20098;-69
2023/05/11 11:41:02;;;;;;;7.55;2.88;;;;;;;15.45;67.34;100457.31;5089427;28;20055;-68
2023/05/11 11:44:19;;;;;;;6.13;3.20;;;;;;;15.23;67.06;100454.59;5089510;28;20089;-69
2023/05/11 11:47:24;;;;;;;21.67;4.35;;;;;;;15.24;68.50;100446.56;5089037;28;20502;-74
2023/05/11 11:50:28;;;;;;;4.72;3.58;;;;;;;15.57;67.26;100451.16;5088984;28;20047;-69
2023/05/11 11:53:35;;;;;;;7.68;3.90;;;;;;;15.55;66.26;100442.50;5088710;28;20461;-71
2023/05/11 11:56:39;;;;;;;7.57;3.67;;;;;;;15.57;65.47;100443.25;5088887;28;20526;-70
2023/05/11 11:59:46;;;;;;;4.78;3.30;;;;;;;15.64;64.83;100438.34;5077667;28;20581;-67
2023/05/11 12:02:50;;;;;;;5.07;3.30;;;;;;;15.82;66.53;100436.13;5074996;28;20079;-69
2023/05/11 12:06:00;;;;;;;8.23;3.67;;;;;;;15.99;67.28;100430.44;5075043;28;20043;-74
2023/05/11 12:09:06;;;;;;;8.85;6.32;;;;;;;16.11;68.26;100430.44;5074897;28;20560;-73
2023/05/11 12:12:10;;;;;;;9.63;5.80;;;;;;;16.17;67.42;100435.25;5075192;28;20106;-73
2023/05/11 12:15:27;;;;;;;6.00;5.40;;;;;;;16.22;67.18;100433.13;5075219;28;20141;-72
2023/05/11 12:18:30;;;;;;;5.38;4.72;;;;;;;16.27;66.86;100430.94;5074871;28;20040;-73
2023/05/11 12:21:33;;;;;;;6.95;4.07;;;;;;;16.34;66.38;100426.88;5074853;28;20047;-71
2023/05/11 12:24:38;;;;;;;5.10;3.42;;;;;;;16.32;65.43;100428.78;5074828;28;20060;-73
2023/05/11 12:27:48;;;;;;;5.15;3.22;;;;;;;16.48;65.31;100421.34;5073848;28;20514;-73
2023/05/11 12:30:54;;;;;;;4.28;2.78;;;;;;;16.57;66.88;100422.44;5074764;28;20047;-77
2023/05/11 12:33:57;;;;;;;5.40;3.95;;;;;;;16.51;64.96;100418.47;5074671;28;20079;-75
2023/05/11 12:37:05;;;;;;;7.10;3.67;;;;;;;16.52;64.81;100420.16;5073664;28;20039;-74
2023/05/11 12:40:11;;;;;;;6.82;4.20;;;;;;;16.54;64.61;100422.69;5073731;28;20073;-75
2023/05/11 12:43:19;;;;;;;4.32;3.10;;;;;;;16.33;63.86;100425.19;5074412;28;20090;-73
2023/05/11 12:46:23;;;;;;;4.18;3.55;;;;;;;16.45;65.71;100418.94;5074361;28;20048;-76
2023/05/11 12:49:27;;;;;;;5.47;3.47;;;;;;;16.58;63.63;100418.00;5073196;28;20119;-72
2023/05/11 12:52:40;;;;;;;4.40;3.42;;;;;;;16.51;62.72;100407.91;5072539;28;20048;-72
2023/05/11 12:55:44;;;;;;;6.82;2.97;;;;;;;16.52;61.13;100409.59;5072517;28;20169;-69
2023/05/11 12:58:49;;;;;;;5.22;3.15;;;;;;;16.53;62.46;100410.44;5074339;28;20510;-69
2023/05/11 13:01:53;;;;;;;5.25;3.47;;;;;;;16.08;62.78;100410.44;5073413;28;20048;-69
2023/05/11 13:04:57;;;;;;;4.60;3.08;;;;;;;16.10;63.20;100410.31;5073403;28;20082;-71
2023/05/11 13:08:07;;;;;;;5.75;3.35;;;;;;;16.20;63.16;100400.72;5073267;28;20059;-69
2023/05/11 13:11:23;;;;;;;4.43;3.38;;;;;;;16.23;63.29;100401.31;5072286;28;20063;-68
2023/05/11 13:14:30;;;;;;;4.10;3.40;;;;;;;16.43;64.55;100393.63;5072531;28;20059;-67
2023/05/11 13:17:38;;;;;;;3.70;2.85;;;;;;;16.37;62.92;100396.75;5072965;28;20090;-69
2023/05/11 13:20:43;;;;;;;4.25;2.63;;;;;;;16.17;63.69;100396.53;5072861;28;20457;-67
2023/05/11 13:23:50;;;;;;;7.45;2.97;;;;;;;16.25;61.87;100393.31;5072776;28;20459;-68
2023/05/11 13:26:55;;;;;;;4.07;2.90;;;;;;;16.35;61.77;100393.41;5073307;28;20048;-69
2023/05/11 13:29:58;;;;;;;3.33;3.03;;;;;;;16.35;61.73;100396.06;5073652;28;20067;-68
2023/05/11 13:33:02;;;;;;;4.13;3.10;;;;;;;16.46;62.56;100402.19;5073190;28;20044;-67
2023/05/11 13:36:09;;;;;;;4.53;3.90;;;;;;;16.42;62.45;100398.09;5073651;28;20109;-68
2023/05/11 13:39:14;;;;;;;6.90;3.63;;;;;;;16.47;61.03;100400.38;5073470;28;20090;-68
2023/05/11 13:42:17;;;;;;;4.55;3.78;;;;;;;16.43;60.88;100385.72;5073846;28;20109;-68
2023/05/11 13:45:21;;;;;;;6.80;3.10;;;;;;;16.14;63.28;100394.13;5073760;28;20051;-69
2023/05/11 13:48:26;;;;;;;5.90;3.90;;;;;;;16.28;60.97;100390.44;5072133;28;20097;-67
2023/05/11 13:51:32;;;;;;;6.03;4.00;;;;;;;16.38;62.19;100394.00;5073105;28;20039;-68
2023/05/11 13:54:36;;;;;;;4.82;3.63;;;;;;;16.56;61.83;100389.09;5073445;28;20116;-68
2023/05/11 13:57:39;;;;;;;3.90;3.22;;;;;;;16.54;60.37;100385.72;5073218;28;20047;-68
2023/05/11 14:00:43;;;;;;;4.50;3.47;;;;;;;16.59;62.41;100387.97;5073354;28;20048;-68
2023/05/11 14:03:51;;;;;;;6.60;4.05;;;;;;;16.60;63.01;100387.88;5073067;28;20039;-68
2023/05/11 14:06:54;;;;;;;7.45;4.20;;;;;;;16.35;61.84;100390.78;5072647;28;20051;-68
2023/05/11 14:09:58;;;;;;;4.93;4.15;;;;;;;16.40;63.75;100383.31;5073005;28;20043;-68
2023/05/11 14:13:01;;;;;;;4.63;3.78;;;;;;;16.46;63.49;100394.25;5072872;28;20550;-68
2023/05/11 14:16:05;;;;;;;5.78;4.40;;;;;;;16.22;63.50;100401.44;5072812;28;20458;-70
2023/05/11 14:19:08;;;;;;;4.93;3.97;;;;;;;16.10;66.05;100386.56;5072902;28;20043;-68
2023/05/11 14:22:14;;;;;;;6.03;3.92;;;;;;;16.38;65.27;100385.25;5072869;28;20090;-67
2023/05/11 14:25:18;;;;;;;4.32;3.92;;;;;;;16.32;64.93;100381.31;5072705;28;20397;-68
2023/05/11 14:28:21;;;;;;;4.20;3.80;;;;;;;16.44;65.68;100384.78;5072699;28;20063;-69
2023/05/11 14:31:24;;;;;;;4.72;3.90;;;;;;;16.39;65.66;100382.50;5072817;28;20043;-69